createdAt,value
2017-05-05T00:00:48.896Z,15.28
2017-05-05T00:03:16.138Z,13.72
2017-05-05T00:05:43.397Z,16.58
2017-05-05T00:08:10.679Z,16.22
2017-05-05T00:10:37.972Z,16.46
2017-05-05T00:13:06.155Z,16.52
2017-05-05T00:15:33.648Z,17.20
2017-05-05T00:18:00.932Z,15.48
2017-05-05T00:20:28.275Z,17.12
2017-05-05T00:22:55.658Z,16.58
2017-05-05T00:25:22.931Z,17.20
2017-05-05T00:27:50.204Z,18.04
2017-05-05T00:30:25.311Z,16.84
2017-05-05T00:32:52.756Z,15.94
2017-05-05T00:35:20.156Z,16.84
2017-05-05T00:37:48.212Z,17.42
2017-05-05T00:40:15.472Z,17.16
2017-05-05T00:42:42.744Z,16.38
2017-05-05T00:45:10.811Z,16.70
2017-05-05T00:47:38.085Z,17.56
2017-05-05T00:50:06.155Z,16.30
2017-05-05T00:52:34.201Z,17.84
2017-05-05T00:55:01.500Z,16.12
2017-05-05T00:57:29.553Z,18.02
2017-05-05T00:59:56.820Z,17.28
2017-05-05T01:02:24.124Z,16.12
2017-05-05T01:04:51.432Z,16.48
2017-05-05T01:07:18.792Z,16.28
2017-05-05T01:09:46.106Z,16.36
2017-05-05T01:12:13.376Z,16.86
2017-05-05T01:14:40.655Z,17.42
2017-05-05T01:17:07.950Z,16.30
2017-05-05T01:19:36.092Z,16.02
2017-05-05T01:22:03.364Z,16.90
2017-05-05T01:24:30.652Z,16.54
2017-05-05T01:26:57.956Z,16.88
2017-05-05T01:29:25.224Z,17.80
2017-05-05T01:31:52.585Z,16.16
2017-05-05T01:34:19.831Z,16.16
2017-05-05T01:36:47.163Z,16.24
2017-05-05T01:39:14.495Z,15.76
2017-05-05T01:41:42.511Z,16.26
2017-05-05T01:44:09.795Z,15.56
2017-05-05T01:46:37.909Z,15.18
2017-05-05T01:49:05.209Z,16.20
2017-05-05T01:51:32.588Z,15.98
2017-05-05T01:53:59.830Z,16.70
2017-05-05T01:56:27.060Z,16.48
2017-05-05T01:58:54.324Z,18.48
2017-05-05T02:01:21.627Z,17.16
2017-05-05T02:03:49.204Z,15.92
2017-05-05T02:06:16.472Z,16.46
2017-05-05T02:08:44.478Z,15.22
2017-05-05T02:11:11.750Z,15.20
2017-05-05T02:13:39.011Z,14.60
2017-05-05T02:16:06.311Z,16.90
2017-05-05T02:18:33.761Z,15.78
2017-05-05T02:21:01.030Z,17.82
2017-05-05T02:23:28.331Z,17.10
2017-05-05T02:25:55.585Z,16.22
2017-05-05T02:28:22.895Z,16.30
2017-05-05T02:30:50.149Z,16.28
2017-05-05T02:33:17.424Z,16.46
2017-05-05T02:35:45.512Z,16.06
2017-05-05T02:38:20.448Z,16.90
2017-05-05T02:40:48.479Z,16.88
2017-05-05T02:43:15.727Z,15.70
2017-05-05T02:45:43.003Z,17.10
2017-05-05T02:48:10.357Z,16.00
2017-05-05T02:50:37.763Z,17.08
2017-05-05T02:53:05.756Z,17.52
2017-05-05T02:55:33.188Z,17.78
2017-05-05T02:58:01.214Z,17.86
2017-05-05T03:00:28.491Z,19.44
2017-05-05T03:02:55.791Z,18.02
2017-05-05T03:05:23.835Z,18.32
2017-05-05T03:07:51.121Z,18.46
2017-05-05T03:10:19.196Z,19.74
2017-05-05T03:12:47.320Z,18.00
2017-05-05T03:15:14.855Z,19.50
2017-05-05T03:17:42.092Z,20.14
2017-05-05T03:20:10.155Z,20.60
2017-05-05T03:22:37.604Z,19.98
2017-05-05T03:25:04.896Z,19.44
2017-05-05T03:27:39.954Z,20.52
2017-05-05T03:30:07.356Z,18.58
2017-05-05T03:32:34.612Z,19.16
2017-05-05T03:35:01.997Z,20.16
2017-05-05T03:37:29.989Z,20.78
2017-05-05T03:39:57.260Z,21.48
2017-05-05T03:42:24.529Z,21.06
2017-05-05T03:44:51.811Z,22.50
2017-05-05T03:47:19.092Z,19.56
2017-05-05T03:49:46.398Z,22.78
2017-05-05T03:52:13.692Z,20.12
2017-05-05T03:54:41.355Z,21.64
2017-05-05T03:57:08.611Z,22.48
2017-05-05T03:59:36.771Z,20.06
2017-05-05T04:02:04.104Z,22.02
2017-05-05T04:04:31.352Z,20.42
2017-05-05T04:06:59.320Z,21.44
2017-05-05T04:09:27.365Z,21.76
2017-05-05T04:11:54.658Z,20.82
2017-05-05T04:14:22.752Z,20.02
2017-05-05T04:16:50.021Z,19.34
2017-05-05T04:19:17.489Z,21.62
2017-05-05T04:21:44.767Z,22.24
2017-05-05T04:24:12.039Z,20.54
2017-05-05T04:26:39.324Z,20.60
2017-05-05T04:29:07.331Z,20.08
2017-05-05T04:31:34.624Z,20.72
2017-05-05T04:34:01.900Z,21.50
2017-05-05T04:36:29.182Z,20.84
2017-05-05T04:38:57.183Z,21.86
2017-05-05T04:41:24.459Z,19.30
2017-05-05T04:43:51.760Z,18.68
2017-05-05T04:46:19.005Z,19.20
2017-05-05T04:48:46.287Z,17.68
2017-05-05T04:51:14.326Z,20.56
2017-05-05T04:53:41.566Z,20.88
2017-05-05T04:56:08.923Z,20.64
2017-05-05T04:58:36.278Z,19.52
2017-05-05T05:01:03.559Z,18.66
2017-05-05T05:03:30.819Z,18.84
2017-05-05T05:05:58.081Z,20.32
2017-05-05T05:08:25.332Z,17.36
2017-05-05T05:10:52.640Z,19.96
2017-05-05T05:13:20.251Z,20.46
2017-05-05T05:15:47.494Z,19.88
2017-05-05T05:18:14.746Z,20.68
2017-05-05T05:20:42.109Z,24.00
2017-05-05T05:23:09.396Z,21.18
2017-05-05T05:25:36.659Z,19.54
2017-05-05T05:28:03.968Z,19.26
2017-05-05T05:30:31.241Z,19.16
2017-05-05T05:32:58.517Z,21.56
2017-05-05T05:35:25.767Z,17.20
2017-05-05T05:37:53.097Z,18.48
2017-05-05T05:40:20.340Z,20.36
2017-05-05T05:42:48.353Z,20.28
2017-05-05T05:45:15.615Z,24.18
2017-05-05T05:47:42.957Z,22.68
2017-05-05T05:50:10.229Z,18.76
2017-05-05T05:52:37.551Z,21.18
2017-05-05T05:55:04.911Z,20.06
2017-05-05T05:57:39.936Z,16.02
2017-05-05T06:00:07.940Z,15.72
2017-05-05T06:02:35.291Z,14.96
2017-05-05T06:05:02.539Z,14.92
2017-05-05T06:07:29.820Z,17.48
2017-05-05T06:09:57.210Z,15.78
2017-05-05T06:12:24.503Z,15.52
2017-05-05T06:14:52.885Z,13.72
2017-05-05T06:17:20.916Z,13.86
2017-05-05T06:19:48.185Z,16.16
2017-05-05T06:22:15.591Z,15.78
2017-05-05T06:24:43.672Z,17.68
2017-05-05T06:27:10.939Z,15.08
2017-05-05T06:29:38.217Z,12.00
2017-05-05T06:32:05.484Z,14.62
2017-05-05T06:34:32.793Z,15.22
2017-05-05T06:37:00.860Z,14.24
2017-05-05T06:39:28.155Z,14.14
2017-05-05T06:41:55.441Z,14.32
2017-05-05T06:44:28.591Z,14.00
2017-05-05T06:46:56.359Z,14.52
2017-05-05T06:49:24.384Z,14.88
2017-05-05T06:51:51.698Z,15.08
2017-05-05T06:54:18.996Z,15.70
2017-05-05T06:56:46.324Z,16.26
2017-05-05T06:59:13.708Z,16.32
2017-05-05T07:01:41.001Z,17.96
2017-05-05T07:04:08.385Z,14.88
2017-05-05T07:06:36.411Z,16.32
2017-05-05T07:09:03.966Z,17.32
2017-05-05T07:11:31.514Z,17.10
2017-05-05T07:13:58.771Z,17.00
2017-05-05T07:16:25.995Z,19.96
2017-05-05T07:18:54.018Z,18.24
2017-05-05T07:21:21.286Z,16.80
2017-05-05T07:23:48.599Z,16.72
2017-05-05T07:26:16.583Z,18.86
2017-05-05T07:28:44.017Z,17.58
2017-05-05T07:31:11.336Z,20.92
2017-05-05T07:33:38.571Z,20.18
2017-05-05T07:36:05.843Z,14.36
2017-05-05T07:38:33.101Z,16.06
2017-05-05T07:41:00.452Z,19.82
2017-05-05T07:43:27.789Z,19.70
2017-05-05T07:45:55.058Z,16.70
2017-05-05T07:48:22.358Z,18.20
2017-05-05T07:50:49.739Z,16.80
2017-05-05T07:53:16.960Z,13.46
2017-05-05T07:55:44.217Z,14.88
2017-05-05T07:58:11.477Z,14.68
2017-05-05T08:00:38.741Z,15.76
2017-05-05T08:03:06.059Z,14.26
2017-05-05T08:05:33.367Z,12.90
2017-05-05T08:08:00.655Z,17.28
2017-05-05T08:10:28.731Z,15.18
2017-05-05T08:12:56.746Z,15.88
2017-05-05T08:15:24.051Z,15.06
2017-05-05T08:17:51.321Z,14.46
2017-05-05T08:20:19.353Z,14.96
2017-05-05T08:22:46.670Z,15.30
2017-05-05T08:25:14.709Z,14.26
2017-05-05T08:27:41.992Z,15.36
2017-05-05T08:30:10.170Z,14.86
2017-05-05T08:32:38.170Z,14.98
2017-05-05T08:35:05.575Z,14.14
2017-05-05T08:37:32.863Z,13.22
2017-05-05T08:40:00.928Z,14.16
2017-05-05T08:42:28.261Z,13.88
2017-05-05T08:44:55.543Z,14.54
2017-05-05T08:47:22.831Z,14.36
2017-05-05T08:49:50.867Z,14.42
2017-05-05T08:52:18.107Z,13.74
2017-05-05T08:54:45.458Z,14.30
2017-05-05T08:57:12.782Z,14.98
2017-05-05T08:59:40.787Z,13.54
2017-05-05T09:02:08.075Z,13.52
2017-05-05T09:04:35.388Z,13.02
2017-05-05T09:07:02.644Z,13.00
2017-05-05T09:09:29.933Z,11.82
2017-05-05T09:11:57.223Z,12.40
2017-05-05T09:14:24.495Z,12.42
2017-05-05T09:16:59.724Z,13.54
2017-05-05T09:19:27.024Z,12.18
2017-05-05T09:21:54.608Z,13.22
2017-05-05T09:24:22.293Z,12.68
2017-05-05T09:26:49.600Z,11.20
2017-05-05T09:29:17.703Z,12.32
2017-05-05T09:31:44.988Z,12.66
2017-05-05T09:34:12.294Z,12.70
2017-05-05T09:36:39.573Z,13.06
2017-05-05T09:39:06.828Z,11.92
2017-05-05T09:41:34.153Z,11.90
2017-05-05T09:44:01.413Z,12.98
2017-05-05T09:46:29.419Z,11.56
2017-05-05T09:48:56.721Z,11.76
2017-05-05T09:51:24.175Z,13.10
2017-05-05T09:53:51.437Z,12.02
2017-05-05T09:56:18.704Z,12.60
2017-05-05T09:58:46.008Z,12.46
2017-05-05T10:01:13.290Z,11.28
2017-05-05T10:03:40.547Z,9.96
2017-05-05T10:06:07.839Z,11.64
2017-05-05T10:08:35.108Z,11.78
2017-05-05T10:11:02.433Z,12.26
2017-05-05T10:13:29.688Z,11.48
2017-05-05T10:15:57.046Z,10.24
2017-05-05T10:18:24.308Z,11.70
2017-05-05T10:20:51.639Z,10.88
2017-05-05T10:23:18.884Z,12.02
2017-05-05T10:25:46.205Z,12.32
2017-05-05T10:28:13.560Z,11.86
2017-05-05T10:30:40.836Z,10.52
2017-05-05T10:33:08.120Z,11.72
2017-05-05T10:35:35.415Z,11.62
2017-05-05T10:38:02.687Z,11.54
2017-05-05T10:40:29.984Z,11.02
2017-05-05T10:42:58.043Z,11.46
2017-05-05T10:45:25.368Z,11.00
2017-05-05T10:47:52.635Z,10.02
2017-05-05T10:50:19.925Z,11.00
2017-05-05T10:52:47.236Z,10.32
2017-05-05T10:55:14.563Z,10.12
2017-05-05T10:57:41.944Z,9.00
2017-05-05T11:00:09.223Z,8.78
2017-05-05T11:02:36.496Z,9.36
2017-05-05T11:05:03.729Z,8.74
2017-05-05T11:07:30.965Z,9.76
2017-05-05T11:09:58.252Z,9.18
2017-05-05T11:12:25.527Z,10.88
2017-05-05T11:14:52.814Z,10.00
2017-05-05T11:17:20.856Z,9.06
2017-05-05T11:19:48.129Z,9.04
2017-05-05T11:22:15.616Z,10.64
2017-05-05T11:24:43.776Z,10.74
2017-05-05T11:27:11.063Z,9.24
2017-05-05T11:29:38.423Z,9.00
2017-05-05T11:32:05.683Z,8.02
2017-05-05T11:34:32.951Z,8.10
2017-05-05T11:37:00.207Z,9.66
2017-05-05T11:39:27.490Z,11.40
2017-05-05T11:41:54.836Z,10.48
2017-05-05T11:44:22.196Z,9.68
2017-05-05T11:46:49.548Z,9.08
2017-05-05T11:49:16.839Z,11.42
2017-05-05T11:51:44.104Z,8.52
2017-05-05T11:54:11.424Z,9.24
2017-05-05T11:56:38.729Z,8.54
2017-05-05T11:59:06.063Z,8.12
2017-05-05T12:01:33.348Z,8.52
2017-05-05T12:04:00.623Z,9.64
2017-05-05T12:06:27.983Z,10.10
2017-05-05T12:08:55.196Z,9.04
2017-05-05T12:11:22.484Z,7.88
2017-05-05T12:13:50.961Z,9.60
2017-05-05T12:16:18.271Z,9.08
2017-05-05T12:18:45.579Z,9.22
2017-05-05T12:21:12.893Z,8.50
2017-05-05T12:23:40.176Z,8.82
2017-05-05T12:26:07.455Z,10.68
2017-05-05T12:28:34.736Z,9.60
2017-05-05T12:31:02.012Z,10.40
2017-05-05T12:33:36.202Z,10.22
2017-05-05T12:36:03.459Z,9.86
2017-05-05T12:38:30.744Z,9.34
2017-05-05T12:40:58.891Z,8.44
2017-05-05T12:43:26.159Z,9.24
2017-05-05T12:45:54.163Z,9.22
2017-05-05T12:48:21.485Z,9.14
2017-05-05T12:50:48.753Z,9.28
2017-05-05T12:53:16.116Z,9.92
2017-05-05T12:55:43.407Z,9.10
2017-05-05T12:58:10.663Z,8.10
2017-05-05T13:00:38.067Z,8.30
2017-05-05T13:03:05.319Z,8.44
2017-05-05T13:05:32.634Z,8.28
2017-05-05T13:07:59.997Z,8.54
2017-05-05T13:10:27.315Z,8.90
2017-05-05T13:12:54.630Z,7.92
2017-05-05T13:15:21.920Z,7.60
2017-05-05T13:17:49.218Z,7.58
2017-05-05T13:20:17.292Z,8.58
2017-05-05T13:22:45.407Z,7.98
2017-05-05T13:25:12.715Z,9.18
2017-05-05T13:27:40.099Z,8.02
2017-05-05T13:30:07.400Z,7.92
2017-05-05T13:32:34.704Z,8.98
2017-05-05T13:35:02.685Z,7.66
2017-05-05T13:37:30.691Z,7.98
2017-05-05T13:39:57.965Z,7.62
2017-05-05T13:42:25.472Z,8.08
2017-05-05T13:44:53.560Z,7.28
2017-05-05T13:47:21.605Z,7.80
2017-05-05T13:49:48.935Z,8.00
2017-05-05T13:52:16.208Z,8.28
2017-05-05T13:54:43.492Z,8.70
2017-05-05T13:57:11.552Z,7.66
2017-05-05T13:59:38.832Z,7.98
2017-05-05T14:02:06.815Z,7.48
2017-05-05T14:04:34.853Z,7.46
2017-05-05T14:07:02.188Z,7.06
2017-05-05T14:09:29.516Z,7.74
2017-05-05T14:11:56.796Z,7.46
2017-05-05T14:14:24.178Z,8.08
2017-05-05T14:16:51.449Z,7.46
2017-05-05T14:19:18.733Z,7.84
2017-05-05T14:21:47.005Z,8.86
2017-05-05T14:24:14.263Z,7.66
2017-05-05T14:26:41.574Z,7.00
2017-05-05T14:29:08.833Z,7.12
2017-05-05T14:31:36.143Z,7.48
2017-05-05T14:34:03.512Z,6.78
2017-05-05T14:36:31.517Z,7.52
2017-05-05T14:38:58.819Z,6.58
2017-05-05T14:41:26.104Z,7.78
2017-05-05T14:43:54.112Z,6.70
2017-05-05T14:46:21.366Z,7.08
2017-05-05T14:48:48.661Z,7.38
2017-05-05T14:51:16.117Z,6.58
2017-05-05T14:53:43.465Z,6.22
2017-05-05T14:56:17.664Z,6.98
2017-05-05T14:58:44.952Z,7.14
2017-05-05T15:01:12.271Z,6.98
2017-05-05T15:03:39.589Z,6.38
2017-05-05T15:06:06.889Z,6.64
2017-05-05T15:08:34.160Z,5.78
2017-05-05T15:11:01.435Z,6.06
2017-05-05T15:13:28.739Z,6.42
2017-05-05T15:15:56.747Z,6.24
2017-05-05T15:18:24.077Z,6.62
2017-05-05T15:20:52.096Z,6.02
2017-05-05T15:23:19.376Z,6.90
2017-05-05T15:25:46.705Z,5.42
2017-05-05T15:28:13.967Z,6.28
2017-05-05T15:30:41.222Z,5.90
2017-05-05T15:33:08.497Z,6.26
2017-05-05T15:35:35.763Z,6.52
2017-05-05T15:38:03.080Z,6.20
2017-05-05T15:40:30.520Z,6.40
2017-05-05T15:42:58.548Z,6.98
2017-05-05T15:45:25.912Z,6.22
2017-05-05T15:47:53.204Z,6.58
2017-05-05T15:50:20.620Z,7.30
2017-05-05T15:52:47.956Z,7.60
2017-05-05T15:55:15.206Z,7.16
2017-05-05T15:57:43.227Z,7.66
2017-05-05T16:00:10.593Z,7.38
2017-05-05T16:02:37.923Z,7.04
2017-05-05T16:05:05.219Z,6.92
2017-05-05T16:07:32.546Z,6.74
2017-05-05T16:10:00.192Z,6.86
2017-05-05T16:12:27.499Z,7.24
2017-05-05T16:14:54.804Z,7.08
2017-05-05T16:17:22.108Z,7.38
2017-05-05T16:19:49.768Z,7.92
2017-05-05T16:22:17.059Z,7.78
2017-05-05T16:24:44.387Z,7.70
2017-05-05T16:27:11.661Z,6.80
2017-05-05T16:29:38.986Z,7.08
2017-05-05T16:32:06.301Z,6.98
2017-05-05T16:34:33.647Z,7.22
2017-05-05T16:37:00.956Z,6.96
2017-05-05T16:39:28.271Z,6.84
2017-05-05T16:41:55.588Z,6.88
2017-05-05T16:44:22.892Z,6.46
2017-05-05T16:46:50.191Z,7.08
2017-05-05T16:49:17.461Z,6.86
2017-05-05T16:51:44.742Z,6.18
2017-05-05T16:54:11.991Z,7.20
2017-05-05T16:56:39.278Z,7.02
2017-05-05T16:59:06.547Z,6.58
2017-05-05T17:01:33.875Z,7.88
2017-05-05T17:04:01.157Z,6.18
2017-05-05T17:06:28.460Z,6.82
2017-05-05T17:08:55.756Z,6.36
2017-05-05T17:11:23.076Z,5.78
2017-05-05T17:13:50.331Z,6.36
2017-05-05T17:16:17.629Z,6.04
2017-05-05T17:18:44.883Z,6.60
2017-05-05T17:21:12.186Z,7.22
2017-05-05T17:23:40.236Z,7.96
2017-05-05T17:26:07.493Z,7.12
2017-05-05T17:28:34.737Z,7.12
2017-05-05T17:31:02.022Z,8.98
2017-05-05T17:33:29.407Z,7.70
2017-05-05T17:35:56.688Z,7.20
2017-05-05T17:38:24.152Z,8.18
2017-05-05T17:40:51.461Z,7.92
2017-05-05T17:43:18.759Z,7.30
2017-05-05T17:45:46.074Z,8.10
2017-05-05T17:48:13.411Z,7.88
2017-05-05T17:50:40.952Z,8.76
2017-05-05T17:53:08.299Z,7.12
2017-05-05T17:55:35.751Z,8.22
2017-05-05T17:58:03.048Z,7.60
2017-05-05T18:00:30.316Z,7.82
2017-05-05T18:02:57.564Z,7.82
2017-05-05T18:05:24.864Z,7.18
2017-05-05T18:07:52.868Z,8.32
2017-05-05T18:10:20.120Z,8.90
2017-05-05T18:12:47.444Z,7.32
2017-05-05T18:15:14.809Z,9.28
2017-05-05T18:17:42.134Z,8.50
2017-05-05T18:20:09.409Z,9.26
2017-05-05T18:22:36.706Z,9.26
2017-05-05T18:25:11.711Z,10.28
2017-05-05T18:27:38.984Z,9.68
2017-05-05T18:30:07.000Z,10.20
2017-05-05T18:32:34.276Z,10.38
2017-05-05T18:35:01.606Z,10.08
2017-05-05T18:37:28.896Z,10.24
2017-05-05T18:39:56.192Z,9.42
2017-05-05T18:42:24.242Z,10.38
2017-05-05T18:44:58.541Z,10.70
2017-05-05T18:47:25.851Z,11.46
2017-05-05T18:49:54.115Z,10.88
2017-05-05T18:52:21.391Z,10.54
2017-05-05T18:54:49.468Z,10.52
2017-05-05T18:57:17.530Z,9.38
2017-05-05T18:59:45.033Z,9.58
2017-05-05T19:02:15.582Z,10.86
2017-05-05T19:04:42.926Z,11.32
2017-05-05T19:07:10.267Z,11.56
2017-05-05T19:09:38.372Z,12.16
2017-05-05T19:12:05.880Z,12.72
2017-05-05T19:14:33.196Z,12.18
2017-05-05T19:17:00.533Z,12.98
2017-05-05T19:19:27.864Z,14.68
2017-05-05T19:21:55.115Z,14.92
2017-05-05T19:24:22.444Z,14.72
2017-05-05T19:26:49.796Z,16.38
2017-05-05T19:29:17.053Z,16.36
2017-05-05T19:31:44.356Z,15.86
2017-05-05T19:34:11.616Z,17.34
2017-05-05T19:36:38.866Z,17.08
2017-05-05T19:39:06.200Z,18.18
2017-05-05T19:41:33.543Z,17.14
2017-05-05T19:44:00.879Z,16.60
2017-05-05T19:46:28.179Z,17.54
2017-05-05T19:48:55.518Z,16.30
2017-05-05T19:51:22.808Z,15.44
2017-05-05T19:53:50.141Z,15.40
2017-05-05T19:56:17.472Z,16.48
2017-05-05T19:58:44.785Z,15.44
2017-05-05T20:01:12.147Z,15.68
2017-05-05T20:03:39.461Z,13.12
2017-05-05T20:06:06.702Z,13.64
2017-05-05T20:08:34.711Z,11.92
2017-05-05T20:11:02.127Z,13.22
2017-05-05T20:13:30.316Z,12.20
2017-05-05T20:15:58.381Z,13.84
2017-05-05T20:18:26.439Z,13.32
2017-05-05T20:20:53.818Z,12.72
2017-05-05T20:23:21.836Z,14.08
2017-05-05T20:25:49.252Z,15.08
2017-05-05T20:28:16.549Z,14.08
2017-05-05T20:30:44.121Z,15.50
2017-05-05T20:33:11.463Z,13.72
2017-05-05T20:35:38.741Z,16.10
2017-05-05T20:38:06.021Z,16.30
2017-05-05T20:40:33.324Z,17.32
2017-05-05T20:43:01.388Z,15.62
2017-05-05T20:45:29.417Z,16.40
2017-05-05T20:47:56.772Z,18.04
2017-05-05T20:50:24.088Z,16.56
2017-05-05T20:52:52.339Z,15.72
2017-05-05T20:55:19.783Z,14.48
2017-05-05T20:57:47.059Z,15.26
2017-05-05T21:00:14.440Z,17.32
2017-05-05T21:02:41.792Z,16.32
2017-05-05T21:05:09.118Z,14.58
2017-05-05T21:07:36.496Z,13.60
2017-05-05T21:10:03.799Z,13.26
2017-05-05T21:12:31.820Z,13.54
2017-05-05T21:14:59.120Z,13.62
2017-05-05T21:17:27.144Z,14.16
2017-05-05T21:19:54.482Z,15.10
2017-05-05T21:22:21.777Z,15.42
2017-05-05T21:24:49.133Z,13.60
2017-05-05T21:27:16.613Z,14.64
2017-05-05T21:29:43.959Z,12.60
2017-05-05T21:32:11.345Z,14.72
2017-05-05T21:34:38.637Z,13.08
2017-05-05T21:37:06.163Z,14.22
2017-05-05T21:39:33.484Z,14.16
2017-05-05T21:42:00.785Z,14.08
2017-05-05T21:44:28.214Z,12.88
2017-05-05T21:46:55.495Z,15.96
2017-05-05T21:49:22.784Z,14.38
2017-05-05T21:51:50.153Z,15.14
2017-05-05T21:54:17.427Z,15.12
2017-05-05T21:56:44.830Z,14.46
2017-05-05T21:59:12.162Z,15.22
2017-05-05T22:01:39.460Z,14.68
2017-05-05T22:04:06.800Z,14.82
2017-05-05T22:06:34.099Z,15.44
2017-05-05T22:09:02.144Z,15.04
2017-05-05T22:11:29.466Z,14.97
2017-05-05T22:13:56.730Z,15.88
2017-05-05T22:16:24.132Z,14.78
2017-05-05T22:18:51.463Z,16.68
2017-05-05T22:21:18.752Z,15.14
2017-05-05T22:23:46.073Z,14.88
2017-05-05T22:26:13.387Z,14.82
2017-05-05T22:28:41.481Z,14.52
2017-05-05T22:31:08.801Z,15.98
2017-05-05T22:33:36.232Z,12.75
2017-05-05T22:36:03.540Z,13.45
2017-05-05T22:38:31.592Z,14.66
2017-05-05T22:40:58.882Z,16.17
2017-05-05T22:43:26.327Z,15.17
2017-05-05T22:45:54.383Z,14.85
2017-05-05T22:48:21.835Z,16.62
2017-05-05T22:50:49.150Z,15.32
2017-05-05T22:53:16.505Z,15.40
2017-05-05T22:55:43.779Z,16.68
2017-05-05T22:58:11.048Z,15.33
2017-05-05T23:00:38.421Z,14.38
2017-05-05T23:03:05.735Z,14.57
2017-05-05T23:05:33.151Z,16.05
2017-05-05T23:08:00.418Z,14.98
2017-05-05T23:10:27.686Z,17.10
2017-05-05T23:12:55.032Z,17.10
2017-05-05T23:15:22.351Z,16.42
2017-05-05T23:17:49.632Z,15.75
2017-05-05T23:20:16.934Z,15.28
2017-05-05T23:22:44.264Z,15.48
2017-05-05T23:25:11.524Z,16.30
2017-05-05T23:27:38.781Z,16.42
2017-05-05T23:30:06.045Z,16.12
2017-05-05T23:32:33.343Z,16.30
2017-05-05T23:35:00.631Z,16.02
2017-05-05T23:37:27.895Z,16.36
2017-05-05T23:39:55.217Z,17.32
2017-05-05T23:42:23.315Z,15.78
2017-05-05T23:44:50.604Z,17.58
2017-05-05T23:47:17.880Z,15.10
2017-05-05T23:49:45.272Z,14.24
2017-05-05T23:52:13.267Z,14.38
2017-05-05T23:54:40.573Z,15.70
2017-05-05T23:57:07.864Z,15.06
2017-05-05T23:59:35.931Z,13.74
